createdAt,value
2023-04-08T00:00:52.517Z,3.50
2023-04-08T00:03:21.461Z,3.45
2023-04-08T00:05:49.880Z,3.47
2023-04-08T00:08:18.332Z,3.45
2023-04-08T00:10:46.610Z,3.53
2023-04-08T00:13:14.870Z,3.39
2023-04-08T00:15:44.550Z,3.32
2023-04-08T00:18:12.759Z,3.36
2023-04-08T00:20:41.057Z,3.39
2023-04-08T00:23:09.430Z,3.46
2023-04-08T00:25:37.674Z,3.46
2023-04-08T00:28:05.946Z,3.42
2023-04-08T00:30:34.388Z,3.37
2023-04-08T00:33:04.446Z,3.30
2023-04-08T00:35:32.819Z,3.30
2023-04-08T00:38:01.580Z,3.30
2023-04-08T00:40:29.917Z,3.34
2023-04-08T00:42:58.285Z,3.46
2023-04-08T00:45:26.673Z,3.47
2023-04-08T00:47:55.291Z,3.46
2023-04-08T00:50:25.924Z,3.44
2023-04-08T00:52:54.151Z,3.51
2023-04-08T00:55:22.582Z,3.47
2023-04-08T00:57:50.988Z,3.44
2023-04-08T01:00:19.202Z,3.45
2023-04-08T01:02:50.798Z,3.38
2023-04-08T01:05:24.120Z,3.19
2023-04-08T01:07:53.835Z,3.02
2023-04-08T01:10:23.350Z,2.92
2023-04-08T01:12:54.837Z,3.10
2023-04-08T01:15:24.582Z,3.00
2023-04-08T01:17:55.091Z,3.06
2023-04-08T01:20:25.037Z,3.02
2023-04-08T01:23:03.870Z,2.90
2023-04-08T01:25:33.278Z,2.95
2023-04-08T01:28:04.746Z,2.92
2023-04-08T01:30:33.412Z,2.81
2023-04-08T01:33:02.957Z,2.78
2023-04-08T01:35:31.770Z,2.81
2023-04-08T01:38:00.808Z,2.82
2023-04-08T01:40:29.103Z,2.86
2023-04-08T01:42:58.159Z,2.87
2023-04-08T01:45:29.142Z,2.80
2023-04-08T01:47:57.637Z,2.74
2023-04-08T01:50:26.448Z,2.69
2023-04-08T01:52:55.812Z,2.74
2023-04-08T01:55:25.676Z,2.76
2023-04-08T01:57:54.377Z,2.64
2023-04-08T02:00:25.765Z,2.66
2023-04-08T02:02:56.755Z,2.73
2023-04-08T02:05:25.274Z,2.81
2023-04-08T02:07:53.468Z,2.80
2023-04-08T02:10:21.857Z,2.73
2023-04-08T02:12:50.192Z,2.76
2023-04-08T02:15:18.672Z,2.62
2023-04-08T02:17:50.433Z,2.48
2023-04-08T02:20:22.798Z,2.39
2023-04-08T02:22:54.428Z,2.33
2023-04-08T02:25:25.212Z,2.27
2023-04-08T02:27:54.077Z,2.30
2023-04-08T02:30:22.955Z,2.26
2023-04-08T02:32:52.658Z,2.24
2023-04-08T02:35:22.526Z,2.18
2023-04-08T02:37:51.446Z,2.07
2023-04-08T02:40:26.807Z,1.97
2023-04-08T02:42:55.715Z,1.93
2023-04-08T02:45:24.172Z,1.94
2023-04-08T02:47:52.456Z,1.89
2023-04-08T02:50:22.216Z,1.86
2023-04-08T02:52:50.486Z,1.84
2023-04-08T02:55:18.876Z,1.85
2023-04-08T02:57:48.409Z,1.78
2023-04-08T03:00:17.093Z,1.73
2023-04-08T03:02:45.427Z,1.75
2023-04-08T03:05:13.998Z,1.78
2023-04-08T03:07:43.748Z,1.84
2023-04-08T03:10:11.990Z,1.81
2023-04-08T03:12:40.334Z,1.75
2023-04-08T03:15:09.000Z,1.74
2023-04-08T03:17:49.056Z,1.79
2023-04-08T03:20:17.422Z,1.75
2023-04-08T03:22:47.012Z,1.63
2023-04-08T03:25:15.482Z,1.56
2023-04-08T03:27:43.823Z,1.50
2023-04-08T03:30:12.189Z,1.56
2023-04-08T03:32:40.726Z,1.53
2023-04-08T03:35:09.427Z,1.54
2023-04-08T03:37:37.767Z,1.47
2023-04-08T03:40:09.908Z,1.44
2023-04-08T03:42:38.249Z,1.30
2023-04-08T03:45:07.008Z,1.31
2023-04-08T03:47:35.488Z,1.34
2023-04-08T03:50:04.066Z,1.30
2023-04-08T03:52:32.245Z,1.31
2023-04-08T03:55:01.932Z,1.31
2023-04-08T03:57:31.474Z,1.27
2023-04-08T03:59:59.807Z,1.24
2023-04-08T04:02:28.328Z,1.24
2023-04-08T04:04:56.853Z,1.20
2023-04-08T04:07:25.237Z,1.15
2023-04-08T04:09:56.865Z,1.21
2023-04-08T04:12:25.411Z,1.14
2023-04-08T04:14:55.681Z,1.10
2023-04-08T04:17:23.981Z,1.06
2023-04-08T04:19:52.788Z,0.99
2023-04-08T04:22:21.585Z,1.00
2023-04-08T04:24:49.944Z,1.09
2023-04-08T04:27:18.495Z,1.12
2023-04-08T04:29:46.953Z,1.11
2023-04-08T04:32:16.493Z,1.15
2023-04-08T04:34:44.873Z,1.16
2023-04-08T04:37:13.687Z,1.23
2023-04-08T04:39:41.878Z,1.28
2023-04-08T04:42:10.118Z,1.26
2023-04-08T04:44:38.468Z,1.27
2023-04-08T04:47:06.860Z,1.25
2023-04-08T04:49:36.849Z,1.30
2023-04-08T04:52:06.053Z,1.37
2023-04-08T04:54:34.711Z,1.39
2023-04-08T04:57:03.001Z,1.41
2023-04-08T04:59:31.189Z,1.45
2023-04-08T05:01:59.903Z,1.48
2023-04-08T05:04:28.489Z,1.53
2023-04-08T05:06:59.868Z,1.60
2023-04-08T05:09:28.418Z,1.79
2023-04-08T05:11:57.295Z,1.80
2023-04-08T05:14:25.530Z,1.80
2023-04-08T05:16:53.728Z,1.74
2023-04-08T05:19:21.967Z,1.78
2023-04-08T05:21:50.389Z,1.99
2023-04-08T05:24:20.160Z,1.99
2023-04-08T05:26:52.109Z,2.00
2023-04-08T05:29:21.891Z,2.10
2023-04-08T05:31:50.455Z,2.15
2023-04-08T05:34:22.955Z,2.20
2023-04-08T05:36:52.780Z,2.16
2023-04-08T05:39:22.612Z,2.22
2023-04-08T05:41:51.027Z,2.35
2023-04-08T05:44:19.357Z,2.58
2023-04-08T05:46:47.788Z,2.85
2023-04-08T05:49:17.194Z,3.00
2023-04-08T05:51:45.359Z,2.93
2023-04-08T05:54:13.714Z,2.95
2023-04-08T05:56:46.194Z,2.91
2023-04-08T05:59:14.526Z,2.82
2023-04-08T06:01:42.850Z,2.91
2023-04-08T06:04:11.315Z,2.99
2023-04-08T06:06:40.130Z,3.25
2023-04-08T06:09:09.872Z,3.40
2023-04-08T06:11:38.193Z,3.46
2023-04-08T06:14:07.834Z,3.58
2023-04-08T06:16:36.172Z,3.72
2023-04-08T06:19:04.384Z,3.70
2023-04-08T06:21:32.644Z,3.79
2023-04-08T06:24:00.909Z,3.72
2023-04-08T06:26:29.090Z,3.75
2023-04-08T06:28:57.529Z,3.83
2023-04-08T06:31:27.193Z,4.03
2023-04-08T06:33:55.898Z,4.26
2023-04-08T06:36:26.347Z,4.50
2023-04-08T06:38:54.926Z,4.74
2023-04-08T06:41:23.355Z,4.84
2023-04-08T06:43:51.782Z,5.07
2023-04-08T06:46:20.164Z,5.25
2023-04-08T06:48:50.050Z,5.28
2023-04-08T06:51:21.179Z,5.32
2023-04-08T06:53:49.446Z,5.32
2023-04-08T06:56:17.648Z,5.29
2023-04-08T06:58:46.039Z,5.29
2023-04-08T07:01:16.225Z,5.22
2023-04-08T07:03:46.966Z,5.14
2023-04-08T07:06:16.641Z,5.14
2023-04-08T07:08:45.023Z,5.49
2023-04-08T07:11:14.565Z,5.69
2023-04-08T07:13:42.843Z,6.39
2023-04-08T07:16:11.638Z,6.83
2023-04-08T07:18:41.377Z,7.23
2023-04-08T07:21:09.588Z,7.37
2023-04-08T07:23:39.551Z,7.48
2023-04-08T07:26:07.789Z,7.36
2023-04-08T07:28:36.233Z,7.18
2023-04-08T07:31:11.665Z,7.01
2023-04-08T07:33:39.994Z,6.84
2023-04-08T07:36:08.226Z,6.89
2023-04-08T07:38:36.770Z,7.28
2023-04-08T07:41:06.592Z,8.29
2023-04-08T07:43:37.167Z,9.16
2023-04-08T07:46:06.178Z,10.24
2023-04-08T07:48:35.042Z,11.08
2023-04-08T07:51:10.029Z,12.05
2023-04-08T07:53:40.242Z,11.82
2023-04-08T07:56:13.823Z,11.79
2023-04-08T07:58:42.352Z,11.58
2023-04-08T08:01:18.093Z,10.77
2023-04-08T08:03:47.897Z,10.12
2023-04-08T08:06:18.349Z,9.51
2023-04-08T08:08:46.868Z,9.18
2023-04-08T08:11:16.390Z,9.44
2023-04-08T08:13:44.685Z,8.99
2023-04-08T08:16:12.940Z,8.83
2023-04-08T08:18:41.579Z,8.99
2023-04-08T08:21:10.483Z,8.41
2023-04-08T08:23:38.791Z,7.76
2023-04-08T08:26:09.830Z,7.45
2023-04-08T08:28:39.847Z,7.31
2023-04-08T08:31:08.376Z,7.15
2023-04-08T08:33:36.698Z,7.42
2023-04-08T08:36:13.322Z,7.84
2023-04-08T08:38:41.672Z,8.21
2023-04-08T08:41:09.883Z,7.91
2023-04-08T08:43:38.298Z,7.89
2023-04-08T08:46:11.025Z,8.72
2023-04-08T08:48:40.914Z,9.98
2023-04-08T08:51:09.615Z,10.65
2023-04-08T08:53:38.293Z,11.10
2023-04-08T08:58:40.937Z,10.61
2023-04-08T09:01:27.723Z,10.31
2023-04-08T09:04:07.525Z,10.07
2023-04-08T09:06:36.329Z,9.95
2023-04-08T09:09:05.979Z,9.83
2023-04-08T09:11:34.636Z,9.48
2023-04-08T09:14:02.861Z,9.37
2023-04-08T09:16:32.127Z,9.54
2023-04-08T09:19:11.589Z,9.40
2023-04-08T09:21:41.143Z,9.32
2023-04-08T09:24:09.847Z,9.12
2023-04-08T09:26:38.790Z,8.77
2023-04-08T09:29:25.218Z,8.57
2023-04-08T09:31:57.733Z,8.32
2023-04-08T09:34:28.269Z,8.49
2023-04-08T09:36:56.912Z,8.31
2023-04-08T09:39:25.732Z,8.24
2023-04-08T09:41:54.582Z,8.29
2023-04-08T09:44:23.559Z,8.22
2023-04-08T09:46:57.792Z,8.13
2023-04-08T09:49:31.319Z,8.25
2023-04-08T09:52:01.172Z,8.16
2023-04-08T09:54:34.792Z,8.41
2023-04-08T09:57:06.396Z,8.68
2023-04-08T09:59:36.570Z,9.02
2023-04-08T10:02:08.238Z,9.72
2023-04-08T10:04:39.950Z,9.70
2023-04-08T10:07:09.490Z,9.36
2023-04-08T10:09:38.873Z,9.38
2023-04-08T10:12:07.191Z,9.36
2023-04-08T10:14:35.588Z,8.83
2023-04-08T10:17:23.140Z,9.05
2023-04-08T10:19:52.866Z,8.76
2023-04-08T10:22:39.968Z,8.86
2023-04-08T10:25:26.891Z,9.58
2023-04-08T10:27:55.358Z,9.75
2023-04-08T10:30:43.081Z,10.52
2023-04-08T10:33:12.230Z,10.69
2023-04-08T10:35:44.487Z,10.69
2023-04-08T10:38:13.855Z,11.70
2023-04-08T10:40:42.839Z,12.49
2023-04-08T10:43:11.426Z,12.56
2023-04-08T10:45:39.948Z,12.93
2023-04-08T10:48:14.849Z,13.07
2023-04-08T10:50:44.664Z,12.87
2023-04-08T10:53:12.876Z,13.49
2023-04-08T10:55:41.121Z,13.70
2023-04-08T10:58:09.847Z,13.76
2023-04-08T11:00:38.821Z,13.83
2023-04-08T11:03:08.749Z,13.88
2023-04-08T11:05:38.223Z,13.99
2023-04-08T11:08:08.282Z,13.30
2023-04-08T11:10:38.830Z,12.83
2023-04-08T11:13:08.521Z,12.79
2023-04-08T11:15:37.100Z,12.03
2023-04-08T11:18:05.768Z,12.39
2023-04-08T11:20:36.139Z,12.71
2023-04-08T11:23:04.492Z,12.59
2023-04-08T11:25:34.158Z,13.35
2023-04-08T11:28:03.120Z,13.57
2023-04-08T11:30:31.413Z,14.01
2023-04-08T11:33:01.408Z,12.99
2023-04-08T11:35:29.938Z,12.83
2023-04-08T11:37:58.573Z,13.22
2023-04-08T11:40:27.487Z,13.02
2023-04-08T11:42:57.240Z,14.04
2023-04-08T11:45:25.647Z,13.93
2023-04-08T11:47:54.110Z,12.80
2023-04-08T11:50:27.849Z,12.69
2023-04-08T11:52:56.999Z,12.73
2023-04-08T11:55:25.899Z,13.26
2023-04-08T11:57:55.301Z,13.32
2023-04-08T12:00:26.035Z,13.40
2023-04-08T12:02:54.923Z,12.35
2023-04-08T12:05:23.201Z,11.74
2023-04-08T12:07:51.794Z,11.41
2023-04-08T12:10:20.562Z,11.23
2023-04-08T12:12:49.328Z,11.59
2023-04-08T12:15:17.551Z,11.30
2023-04-08T12:17:47.249Z,11.25
2023-04-08T12:20:17.326Z,11.22
2023-04-08T12:22:45.645Z,11.40
2023-04-08T12:25:14.074Z,11.91
2023-04-08T12:27:43.304Z,12.86
2023-04-08T12:30:12.168Z,13.06
2023-04-08T12:32:41.216Z,13.04
2023-04-08T12:35:11.244Z,13.32
2023-04-08T12:37:42.788Z,13.60
2023-04-08T12:40:11.414Z,13.09
2023-04-08T12:42:39.736Z,13.23
2023-04-08T12:45:09.019Z,13.07
2023-04-08T12:47:57.892Z,12.89
2023-04-08T12:50:27.571Z,12.86
2023-04-08T12:52:56.204Z,12.72
2023-04-08T12:55:25.218Z,13.37
2023-04-08T12:57:53.471Z,13.53
2023-04-08T13:00:21.920Z,15.22
2023-04-08T13:02:50.496Z,14.98
2023-04-08T13:05:23.677Z,16.60
2023-04-08T13:07:59.433Z,16.23
2023-04-08T13:10:27.808Z,15.30
2023-04-08T13:12:55.973Z,15.03
2023-04-08T13:15:25.816Z,14.13
2023-04-08T13:17:55.878Z,13.26
2023-04-08T13:20:26.285Z,13.03
2023-04-08T13:22:54.655Z,13.59
2023-04-08T13:25:24.269Z,13.83
2023-04-08T13:27:52.580Z,13.97
2023-04-08T13:30:20.843Z,13.96
2023-04-08T13:32:49.199Z,13.81
2023-04-08T13:35:17.596Z,13.54
2023-04-08T13:37:45.771Z,13.10
2023-04-08T13:40:14.484Z,13.15
2023-04-08T13:42:44.027Z,12.73
2023-04-08T13:45:12.316Z,12.68
2023-04-08T13:47:40.963Z,11.97
2023-04-08T13:50:10.002Z,12.03
2023-04-08T13:52:38.291Z,11.77
2023-04-08T13:55:07.340Z,12.13
2023-04-08T13:57:35.651Z,12.01
2023-04-08T14:00:06.906Z,11.86
2023-04-08T14:02:35.367Z,11.82
2023-04-08T14:05:04.333Z,12.12
2023-04-08T14:07:32.566Z,11.50
2023-04-08T14:10:01.365Z,11.39
2023-04-08T14:12:29.572Z,11.21
2023-04-08T14:14:57.915Z,11.58
2023-04-08T14:17:27.578Z,11.21
2023-04-08T14:19:56.143Z,11.21
2023-04-08T14:22:24.501Z,10.92
2023-04-08T14:24:52.769Z,11.03
2023-04-08T14:27:21.580Z,10.77
2023-04-08T14:29:49.948Z,10.76
2023-04-08T14:32:18.172Z,10.70
2023-04-08T14:34:47.844Z,10.51
2023-04-08T14:37:17.769Z,10.59
2023-04-08T14:40:00.216Z,10.84
2023-04-08T14:42:28.478Z,11.23
2023-04-08T14:44:57.478Z,11.37
2023-04-08T14:47:25.838Z,10.91
2023-04-08T14:49:55.504Z,11.09
2023-04-08T14:52:24.932Z,11.23
2023-04-08T14:54:53.692Z,10.76
2023-04-08T14:57:21.942Z,10.86
2023-04-08T14:59:50.309Z,10.88
2023-04-08T15:02:18.649Z,10.64
2023-04-08T15:04:46.944Z,10.67
2023-04-08T15:07:17.369Z,10.71
2023-04-08T15:09:45.659Z,10.66
2023-04-08T15:12:13.939Z,10.56
2023-04-08T15:14:42.184Z,10.77
2023-04-08T15:17:10.935Z,10.99
2023-04-08T15:19:39.293Z,11.01
2023-04-08T15:22:07.572Z,11.23
2023-04-08T15:24:37.370Z,11.53
2023-04-08T15:27:05.663Z,11.28
2023-04-08T15:29:33.954Z,11.07
2023-04-08T15:32:02.169Z,11.01
2023-04-08T15:34:30.999Z,11.00
2023-04-08T15:36:59.291Z,10.96
2023-04-08T15:39:27.451Z,10.71
2023-04-08T15:41:57.816Z,10.78
2023-04-08T15:44:26.064Z,10.82
2023-04-08T15:46:54.492Z,10.82
2023-04-08T15:49:22.724Z,10.74
2023-04-08T15:51:51.223Z,11.01
2023-04-08T15:54:19.729Z,11.11
2023-04-08T15:56:47.914Z,11.07
2023-04-08T15:59:17.493Z,11.17
2023-04-08T16:01:45.938Z,11.30
2023-04-08T16:04:14.218Z,11.39
2023-04-08T16:06:42.534Z,11.24
2023-04-08T16:09:11.850Z,11.08
2023-04-08T16:11:40.071Z,11.17
2023-04-08T16:14:08.242Z,11.31
2023-04-08T16:16:38.562Z,11.13
2023-04-08T16:19:07.432Z,11.12
2023-04-08T16:21:35.944Z,11.10
2023-04-08T16:24:05.116Z,10.94
2023-04-08T16:26:33.336Z,10.72
2023-04-08T16:29:01.798Z,10.90
2023-04-08T16:34:01.169Z,11.07
2023-04-08T16:36:29.508Z,10.94
2023-04-08T16:38:57.774Z,11.05
2023-04-08T16:41:26.240Z,11.19
2023-04-08T16:43:54.518Z,11.21
2023-04-08T16:46:22.848Z,10.87
2023-04-08T16:48:51.399Z,10.88
2023-04-08T16:51:21.070Z,10.97
2023-04-08T16:53:49.368Z,10.66
2023-04-08T16:56:17.808Z,10.67
2023-04-08T16:58:46.177Z,10.39
2023-04-08T17:01:15.163Z,10.32
2023-04-08T17:03:43.510Z,10.19
2023-04-08T17:06:13.633Z,10.24
2023-04-08T17:08:44.139Z,10.45
2023-04-08T17:11:13.157Z,10.42
2023-04-08T17:13:42.516Z,10.37
2023-04-08T17:16:12.899Z,10.32
2023-04-08T17:18:41.163Z,10.21
2023-04-08T17:21:09.560Z,10.18
2023-04-08T17:23:37.722Z,10.09
2023-04-08T17:26:10.659Z,10.12
2023-04-08T17:28:39.578Z,10.07
2023-04-08T17:31:07.738Z,9.88
2023-04-08T17:33:35.974Z,9.90
2023-04-08T17:36:04.420Z,9.75
2023-04-08T17:38:33.153Z,9.76
2023-04-08T17:41:01.565Z,9.68
2023-04-08T17:43:31.306Z,9.62
2023-04-08T17:46:00.148Z,9.59
2023-04-08T17:48:28.639Z,9.47
2023-04-08T17:51:00.576Z,9.42
2023-04-08T17:53:29.191Z,9.40
2023-04-08T17:55:57.556Z,9.49
2023-04-08T17:58:26.474Z,9.46
2023-04-08T18:00:56.026Z,9.43
2023-04-08T18:03:24.330Z,9.42
2023-04-08T18:05:54.997Z,9.36
2023-04-08T18:08:23.228Z,9.39
2023-04-08T18:10:51.446Z,9.31
2023-04-08T18:13:19.821Z,9.34
2023-04-08T18:15:48.053Z,9.38
2023-04-08T18:18:20.088Z,9.33
2023-04-08T18:20:50.403Z,9.34
2023-04-08T18:23:18.825Z,9.25
2023-04-08T18:25:47.560Z,9.23
2023-04-08T18:28:19.102Z,9.21
2023-04-08T18:30:51.183Z,9.13
2023-04-08T18:33:21.654Z,9.15
2023-04-08T18:35:49.961Z,9.13
2023-04-08T18:38:18.269Z,9.18
2023-04-08T18:40:46.638Z,9.10
2023-04-08T18:43:14.868Z,9.11
2023-04-08T18:45:43.282Z,9.35
2023-04-08T18:48:12.312Z,9.44
2023-04-08T18:50:41.911Z,9.36
2023-04-08T18:53:10.447Z,9.27
2023-04-08T18:55:38.979Z,9.20
2023-04-08T18:58:07.399Z,9.27
2023-04-08T19:00:35.846Z,9.23
2023-04-08T19:03:05.258Z,9.14
2023-04-08T19:05:34.680Z,9.09
2023-04-08T19:08:04.501Z,9.09
2023-04-08T19:10:33.403Z,9.06
2023-04-08T19:13:02.235Z,9.04
2023-04-08T19:15:31.003Z,9.00
2023-04-08T19:18:00.436Z,9.09
2023-04-08T19:20:28.722Z,8.98
2023-04-08T19:22:57.295Z,9.09
2023-04-08T19:25:26.851Z,9.04
2023-04-08T19:27:55.109Z,8.90
2023-04-08T19:30:23.509Z,8.98
2023-04-08T19:32:51.929Z,8.90
2023-04-08T19:35:20.198Z,8.98
2023-04-08T19:37:48.525Z,9.00
2023-04-08T19:40:16.684Z,8.92
2023-04-08T19:42:46.547Z,8.91
2023-04-08T19:45:14.718Z,9.00
2023-04-08T19:47:43.662Z,9.02
2023-04-08T19:50:12.579Z,8.97
2023-04-08T19:52:40.879Z,8.88
2023-04-08T19:55:10.109Z,8.94
2023-04-08T19:57:38.545Z,8.88
2023-04-08T20:00:09.152Z,8.84
2023-04-08T20:02:37.594Z,8.75
2023-04-08T20:05:07.079Z,8.78
2023-04-08T20:07:35.739Z,8.73
2023-04-08T20:10:04.046Z,8.69
2023-04-08T20:12:32.304Z,8.70
2023-04-08T20:15:00.805Z,8.76
2023-04-08T20:17:30.482Z,8.71
2023-04-08T20:19:59.064Z,8.68
2023-04-08T20:22:27.769Z,8.64
2023-04-08T20:24:55.991Z,8.58
2023-04-08T20:27:24.510Z,8.56
2023-04-08T20:29:52.790Z,8.58
2023-04-08T20:32:21.281Z,8.54
2023-04-08T20:34:50.888Z,8.53
2023-04-08T20:37:19.595Z,8.48
2023-04-08T20:39:48.125Z,8.51
2023-04-08T20:42:16.557Z,8.43
2023-04-08T20:44:44.910Z,8.41
2023-04-08T20:47:13.334Z,8.42
2023-04-08T20:49:42.688Z,8.39
2023-04-08T20:52:12.348Z,8.34
2023-04-08T20:54:40.738Z,8.34
2023-04-08T20:57:09.063Z,8.30
2023-04-08T20:59:37.440Z,8.21
2023-04-08T21:02:07.459Z,8.17
2023-04-08T21:04:35.902Z,8.16
2023-04-08T21:07:04.340Z,8.19
2023-04-08T21:09:34.019Z,8.12
2023-04-08T21:12:02.867Z,8.09
2023-04-08T21:14:32.031Z,8.06
2023-04-08T21:17:00.243Z,8.01
2023-04-08T21:19:28.578Z,7.88
2023-04-08T21:21:56.876Z,7.68
2023-04-08T21:24:27.079Z,7.54
2023-04-08T21:26:57.580Z,7.39
2023-04-08T21:29:25.987Z,7.40
2023-04-08T21:31:54.309Z,7.32
2023-04-08T21:34:23.813Z,7.36
2023-04-08T21:36:52.153Z,7.20
2023-04-08T21:39:20.565Z,7.07
2023-04-08T21:41:49.289Z,7.02
2023-04-08T21:44:19.226Z,6.97
2023-04-08T21:46:49.928Z,6.91
2023-04-08T21:49:18.310Z,6.83
2023-04-08T21:51:46.890Z,6.87
2023-04-08T21:54:15.568Z,6.80
2023-04-08T21:56:43.903Z,6.83
2023-04-08T21:59:12.164Z,6.90
2023-04-08T22:01:42.210Z,6.95
2023-04-08T22:04:11.083Z,6.91
2023-04-08T22:06:39.476Z,6.93
2023-04-08T22:09:07.896Z,6.90
2023-04-08T22:11:36.158Z,6.90
2023-04-08T22:14:04.428Z,6.81
2023-04-08T22:16:33.082Z,6.79
2023-04-08T22:19:03.485Z,6.84
2023-04-08T22:21:34.549Z,6.85
2023-04-08T22:24:02.976Z,6.89
2023-04-08T22:26:31.531Z,6.91
2023-04-08T22:28:59.838Z,6.90
2023-04-08T22:31:28.832Z,7.00
2023-04-08T22:33:57.278Z,6.99
2023-04-08T22:36:27.103Z,7.03
2023-04-08T22:38:55.367Z,7.05
2023-04-08T22:41:24.694Z,6.92
2023-04-08T22:44:07.119Z,6.83
2023-04-08T22:46:36.487Z,6.84
2023-04-08T22:49:04.925Z,6.80
2023-04-08T22:51:34.637Z,6.77
2023-04-08T22:54:02.925Z,6.77
2023-04-08T22:56:31.409Z,6.72
2023-04-08T22:58:59.698Z,6.57
2023-04-08T23:01:27.959Z,6.48
2023-04-08T23:03:56.173Z,6.42
2023-04-08T23:06:24.471Z,6.37
2023-04-08T23:08:54.203Z,6.26
2023-04-08T23:11:22.831Z,6.16
2023-04-08T23:13:50.987Z,6.03
2023-04-08T23:16:19.255Z,6.01
2023-04-08T23:18:47.628Z,5.92
2023-04-08T23:21:16.269Z,5.79
2023-04-08T23:23:44.658Z,5.69
2023-04-08T23:26:18.909Z,5.63
2023-04-08T23:28:47.196Z,5.65
2023-04-08T23:31:15.454Z,5.67
2023-04-08T23:33:43.672Z,5.58
2023-04-08T23:36:12.400Z,5.58
2023-04-08T23:38:40.680Z,5.54
2023-04-08T23:41:08.959Z,5.38
2023-04-08T23:43:38.480Z,5.24
2023-04-08T23:46:06.870Z,5.18
2023-04-08T23:48:35.188Z,5.13
2023-04-08T23:51:03.459Z,5.14
2023-04-08T23:53:31.863Z,5.11
2023-04-08T23:56:04.505Z,5.06
2023-04-08T23:58:32.781Z,5.04
